createdAt,value
2019-03-22T00:00:41.163Z,101773.47
2019-03-22T00:03:13.230Z,101768.31
2019-03-22T00:05:45.306Z,101769.63
2019-03-22T00:08:17.431Z,101773.17
2019-03-22T00:10:49.523Z,101768.39
2019-03-22T00:13:21.676Z,101767.98
2019-03-22T00:15:53.844Z,101764.16
2019-03-22T00:18:26.004Z,101760.23
2019-03-22T00:20:58.177Z,101760.86
2019-03-22T00:23:30.306Z,101769.27
2019-03-22T00:26:02.416Z,101759.73
2019-03-22T00:28:34.560Z,101756.30
2019-03-22T00:31:06.648Z,101754.14
2019-03-22T00:33:38.828Z,101747.67
2019-03-22T00:36:10.953Z,101743.25
2019-03-22T00:38:43.057Z,101744.91
2019-03-22T00:41:15.182Z,101742.78
2019-03-22T00:43:47.296Z,101747.31
2019-03-22T00:46:19.435Z,101747.75
2019-03-22T00:48:51.497Z,101747.81
2019-03-22T00:51:23.591Z,101745.63
2019-03-22T00:53:55.695Z,101740.94
2019-03-22T00:56:27.743Z,101747.21
2019-03-22T00:58:59.831Z,101745.02
2019-03-22T01:01:32.019Z,101743.84
2019-03-22T01:04:04.159Z,101739.02
2019-03-22T01:06:36.303Z,101744.14
2019-03-22T01:09:08.984Z,101742.05
2019-03-22T01:11:41.138Z,101737.70
2019-03-22T01:14:13.282Z,101738.95
2019-03-22T01:16:45.390Z,101738.05
2019-03-22T01:19:17.540Z,101744.11
2019-03-22T01:21:49.729Z,101742.33
2019-03-22T01:24:21.782Z,101744.14
2019-03-22T01:26:53.913Z,101744.24
2019-03-22T01:29:26.032Z,101743.80
2019-03-22T01:31:58.137Z,101739.42
2019-03-22T01:34:30.258Z,101738.08
2019-03-22T01:37:02.360Z,101741.58
2019-03-22T01:39:34.477Z,101736.05
2019-03-22T01:42:06.626Z,101729.58
2019-03-22T01:44:38.763Z,101733.55
2019-03-22T01:47:10.899Z,101730.89
2019-03-22T01:49:43.016Z,101730.64
2019-03-22T01:52:15.120Z,101733.11
2019-03-22T01:54:47.124Z,101731.83
2019-03-22T01:57:19.363Z,101722.80
2019-03-22T01:59:51.477Z,101721.13
2019-03-22T02:02:23.503Z,101719.84
2019-03-22T02:04:55.667Z,101723.03
2019-03-22T02:07:27.753Z,101721.69
2019-03-22T02:09:59.905Z,101717.38
2019-03-22T02:12:32.009Z,101719.09
2019-03-22T02:15:05.692Z,101720.02
2019-03-22T02:17:37.796Z,101713.52
2019-03-22T02:20:10.837Z,101714.83
2019-03-22T02:22:46.307Z,101713.08
2019-03-22T02:25:18.628Z,101713.62
2019-03-22T02:27:50.771Z,101710.15
2019-03-22T02:30:22.846Z,101715.40
2019-03-22T02:32:54.972Z,101721.06
2019-03-22T02:35:29.321Z,101725.03
2019-03-22T02:38:00.878Z,101717.13
2019-03-22T02:40:32.975Z,101726.34
2019-03-22T02:43:05.010Z,101714.58
2019-03-22T02:45:37.100Z,101716.02
2019-03-22T02:48:09.272Z,101715.20
2019-03-22T02:50:41.409Z,101715.13
2019-03-22T02:53:13.490Z,101714.69
2019-03-22T02:55:45.647Z,101711.19
2019-03-22T02:58:21.057Z,101710.80
2019-03-22T03:00:51.597Z,101710.29
2019-03-22T03:03:23.666Z,101707.73
2019-03-22T03:05:55.730Z,101703.01
2019-03-22T03:08:27.900Z,101700.28
2019-03-22T03:10:59.972Z,101695.93
2019-03-22T03:13:32.086Z,101699.48
2019-03-22T03:16:04.217Z,101690.77
2019-03-22T03:18:36.253Z,101693.05
2019-03-22T03:21:08.400Z,101693.84
2019-03-22T03:23:40.523Z,101693.89
2019-03-22T03:26:12.684Z,101695.27
2019-03-22T03:28:44.817Z,101693.51
2019-03-22T03:31:16.925Z,101691.66
2019-03-22T03:33:49.014Z,101690.73
2019-03-22T03:36:21.053Z,101685.98
2019-03-22T03:38:53.172Z,101686.93
2019-03-22T03:41:25.315Z,101685.64
2019-03-22T03:43:57.441Z,101681.29
2019-03-22T03:46:29.557Z,101683.12
2019-03-22T03:49:01.714Z,101688.84
2019-03-22T03:51:33.774Z,101691.98
2019-03-22T03:54:05.965Z,101691.95
2019-03-22T03:56:38.011Z,101689.72
2019-03-22T03:59:10.165Z,101689.72
2019-03-22T04:01:42.261Z,101685.77
2019-03-22T04:04:14.409Z,101690.96
2019-03-22T04:06:46.546Z,101685.40
2019-03-22T04:09:18.553Z,101686.59
2019-03-22T04:11:50.664Z,101681.83
2019-03-22T04:14:22.789Z,101679.27
2019-03-22T04:16:54.885Z,101671.87
2019-03-22T04:19:27.082Z,101673.27
2019-03-22T04:21:59.189Z,101677.34
2019-03-22T04:24:31.329Z,101673.93
2019-03-22T04:27:03.398Z,101676.14
2019-03-22T04:29:35.483Z,101677.94
2019-03-22T04:32:07.573Z,101679.72
2019-03-22T04:34:39.697Z,101680.60
2019-03-22T04:37:11.809Z,101678.46
2019-03-22T04:39:43.953Z,101678.06
2019-03-22T04:42:16.109Z,101669.78
2019-03-22T04:44:48.250Z,101673.64
2019-03-22T04:47:22.625Z,101679.29
2019-03-22T04:49:55.932Z,101678.03
2019-03-22T04:52:29.062Z,101680.65
2019-03-22T04:55:03.783Z,101672.69
2019-03-22T04:57:37.178Z,101679.61
2019-03-22T05:00:10.488Z,101678.30
2019-03-22T05:02:45.221Z,101676.13
2019-03-22T05:05:19.716Z,101671.84
2019-03-22T05:07:53.917Z,101673.14
2019-03-22T05:10:27.343Z,101676.22
2019-03-22T05:13:02.337Z,101669.62
2019-03-22T05:15:35.842Z,101671.86
2019-03-22T05:18:08.447Z,101674.43
2019-03-22T05:20:43.217Z,101674.09
2019-03-22T05:23:17.447Z,101672.73
2019-03-22T05:25:53.075Z,101665.39
2019-03-22T05:28:26.225Z,101670.18
2019-03-22T05:32:03.555Z,101671.52
2019-03-22T05:34:35.652Z,101672.44
2019-03-22T05:37:07.936Z,101662.69
2019-03-22T05:39:40.036Z,101658.33
2019-03-22T05:42:12.174Z,101658.78
2019-03-22T05:44:44.284Z,101659.67
2019-03-22T05:47:16.375Z,101666.60
2019-03-22T05:49:48.514Z,101670.10
2019-03-22T05:52:20.619Z,101667.05
2019-03-22T05:54:52.715Z,101670.52
2019-03-22T05:57:24.821Z,101672.70
2019-03-22T05:59:56.970Z,101679.27
2019-03-22T06:02:29.105Z,101688.73
2019-03-22T06:05:01.209Z,101685.20
2019-03-22T06:07:33.426Z,101687.87
2019-03-22T06:10:06.336Z,101691.73
2019-03-22T06:12:38.445Z,101695.20
2019-03-22T06:15:11.070Z,101689.84
2019-03-22T06:17:51.602Z,101690.13
2019-03-22T06:20:17.043Z,101693.97
2019-03-22T06:22:49.359Z,101698.63
2019-03-22T06:25:21.445Z,101703.27
2019-03-22T06:27:53.609Z,101699.62
2019-03-22T06:30:25.776Z,101698.17
2019-03-22T06:33:01.068Z,101709.34
2019-03-22T06:35:33.253Z,101711.34
2019-03-22T06:38:05.419Z,101709.84
2019-03-22T06:40:37.605Z,101710.55
2019-03-22T06:43:09.643Z,101718.63
2019-03-22T06:45:41.797Z,101713.09
2019-03-22T06:48:13.942Z,101721.87
2019-03-22T06:50:46.117Z,101716.19
2019-03-22T06:53:18.188Z,101715.63
2019-03-22T06:55:50.211Z,101724.41
2019-03-22T06:58:24.207Z,101722.47
2019-03-22T07:00:56.065Z,101734.50
2019-03-22T07:03:28.187Z,101733.81
2019-03-22T07:06:00.255Z,101742.04
2019-03-22T07:08:32.402Z,101742.17
2019-03-22T07:11:04.538Z,101748.15
2019-03-22T07:13:36.678Z,101744.84
2019-03-22T07:16:08.923Z,101746.25
2019-03-22T07:18:41.070Z,101748.89
2019-03-22T07:21:13.225Z,101750.33
2019-03-22T07:23:45.375Z,101751.18
2019-03-22T07:26:17.489Z,101757.19
2019-03-22T07:28:49.611Z,101753.67
2019-03-22T07:31:21.805Z,101756.27
2019-03-22T07:33:53.923Z,101753.86
2019-03-22T07:36:26.074Z,101757.31
2019-03-22T07:38:58.171Z,101759.25
2019-03-22T07:41:30.258Z,101756.09
2019-03-22T07:44:02.453Z,101761.95
2019-03-22T07:46:34.602Z,101761.77
2019-03-22T07:49:06.894Z,101769.12
2019-03-22T07:51:39.074Z,101762.28
2019-03-22T07:54:11.171Z,101760.47
2019-03-22T07:56:43.313Z,101756.28
2019-03-22T07:59:15.491Z,101758.02
2019-03-22T08:01:47.657Z,101757.26
2019-03-22T08:04:19.775Z,101750.91
2019-03-22T08:06:51.911Z,101751.71
2019-03-22T08:09:24.025Z,101745.58
2019-03-22T08:11:56.174Z,101751.44
2019-03-22T08:14:28.343Z,101747.88
2019-03-22T08:17:00.456Z,101742.61
2019-03-22T08:19:32.596Z,101741.76
2019-03-22T08:22:04.737Z,101740.81
2019-03-22T08:24:36.860Z,101742.17
2019-03-22T08:27:08.895Z,101731.23
2019-03-22T08:29:41.090Z,101731.33
2019-03-22T08:32:13.222Z,101736.11
2019-03-22T08:34:47.691Z,101730.80
2019-03-22T08:37:19.135Z,101733.80
2019-03-22T08:39:51.156Z,101736.18
2019-03-22T08:42:23.301Z,101732.75
2019-03-22T08:44:55.373Z,101727.33
2019-03-22T08:47:33.979Z,101723.62
2019-03-22T08:50:01.619Z,101719.90
2019-03-22T08:52:33.770Z,101715.20
2019-03-22T08:55:06.124Z,101714.73
2019-03-22T08:57:38.236Z,101714.65
2019-03-22T09:00:11.139Z,101710.02
2019-03-22T09:02:43.267Z,101714.70
2019-03-22T09:05:15.393Z,101708.88
2019-03-22T09:07:47.543Z,101701.78
2019-03-22T09:10:19.700Z,101698.91
2019-03-22T09:12:51.735Z,101699.16
2019-03-22T09:15:23.885Z,101691.63
2019-03-22T09:17:55.983Z,101696.66
2019-03-22T09:20:28.161Z,101692.02
2019-03-22T09:23:00.179Z,101690.72
2019-03-22T09:25:32.359Z,101691.09
2019-03-22T09:28:04.496Z,101697.89
2019-03-22T09:30:36.596Z,101692.86
2019-03-22T09:33:08.725Z,101689.66
2019-03-22T09:35:40.903Z,101678.63
2019-03-22T09:38:13.589Z,101680.79
2019-03-22T09:40:45.811Z,101675.18
2019-03-22T09:43:17.991Z,101668.67
2019-03-22T09:45:50.096Z,101672.00
2019-03-22T09:48:22.216Z,101667.25
2019-03-22T09:50:54.323Z,101665.47
2019-03-22T09:53:26.524Z,101670.80
2019-03-22T09:55:58.635Z,101661.36
2019-03-22T09:58:30.794Z,101651.32
2019-03-22T10:01:02.977Z,101649.75
2019-03-22T10:03:35.233Z,101652.27
2019-03-22T10:06:07.398Z,101646.66
2019-03-22T10:08:39.567Z,101644.33
2019-03-22T10:11:11.723Z,101638.30
2019-03-22T10:13:43.942Z,101632.53
2019-03-22T10:16:16.130Z,101635.56
2019-03-22T10:18:48.170Z,101634.31
2019-03-22T10:21:22.690Z,101619.94
2019-03-22T10:23:54.201Z,101631.05
2019-03-22T10:26:26.396Z,101630.42
2019-03-22T10:28:58.523Z,101628.62
2019-03-22T10:31:37.187Z,101622.27
2019-03-22T10:34:04.520Z,101626.97
2019-03-22T10:36:36.617Z,101626.71
2019-03-22T10:39:10.967Z,101624.52
2019-03-22T10:41:43.169Z,101624.48
2019-03-22T10:44:15.361Z,101611.78
2019-03-22T10:46:47.524Z,101615.59
2019-03-22T10:49:19.650Z,101612.52
2019-03-22T10:51:57.757Z,101610.92
2019-03-22T10:54:25.641Z,101608.21
2019-03-22T10:56:57.634Z,101611.79
2019-03-22T10:59:29.827Z,101604.32
2019-03-22T11:02:03.697Z,101603.72
2019-03-22T11:04:35.903Z,101600.09
2019-03-22T11:07:07.996Z,101591.86
2019-03-22T11:09:40.210Z,101586.12
2019-03-22T11:12:12.737Z,101589.30
2019-03-22T11:14:45.761Z,101588.83
2019-03-22T11:17:18.084Z,101586.80
2019-03-22T11:19:50.200Z,101576.69
2019-03-22T11:22:22.362Z,101569.69
2019-03-22T11:24:54.531Z,101564.30
2019-03-22T11:27:26.655Z,101562.96
2019-03-22T11:29:58.828Z,101554.50
2019-03-22T11:32:30.966Z,101553.55
2019-03-22T11:35:03.139Z,101550.18
2019-03-22T11:37:35.541Z,101541.94
2019-03-22T11:40:10.844Z,101542.53
2019-03-22T11:42:42.899Z,101538.77
2019-03-22T11:45:18.144Z,101528.63
2019-03-22T11:47:50.308Z,101525.13
2019-03-22T11:50:22.433Z,101521.56
2019-03-22T11:52:54.618Z,101517.06
2019-03-22T11:55:26.794Z,101509.31
2019-03-22T11:58:02.410Z,101504.70
2019-03-22T12:00:34.540Z,101509.88
2019-03-22T12:03:06.800Z,101502.94
2019-03-22T12:05:40.571Z,101487.06
2019-03-22T12:08:12.827Z,101489.00
2019-03-22T12:10:44.854Z,101485.86
2019-03-22T12:13:17.028Z,101480.53
2019-03-22T12:15:49.207Z,101478.73
2019-03-22T12:18:24.592Z,101473.42
2019-03-22T12:20:56.767Z,101477.24
2019-03-22T12:23:28.878Z,101467.13
2019-03-22T12:26:01.000Z,101459.80
2019-03-22T12:28:33.140Z,101451.08
2019-03-22T12:31:05.253Z,101447.34
2019-03-22T12:33:37.399Z,101446.11
2019-03-22T12:36:09.491Z,101433.66
2019-03-22T12:38:41.583Z,101442.33
2019-03-22T12:41:14.827Z,101432.55
2019-03-22T12:43:46.931Z,101427.95
2019-03-22T12:46:19.097Z,101425.63
2019-03-22T12:48:51.218Z,101427.63
2019-03-22T12:51:23.326Z,101427.94
2019-03-22T12:53:55.524Z,101410.31
2019-03-22T12:56:28.705Z,101413.57
2019-03-22T12:59:00.809Z,101410.63
2019-03-22T13:01:32.857Z,101410.28
2019-03-22T13:04:04.998Z,101400.05
2019-03-22T13:06:37.257Z,101392.80
2019-03-22T13:09:10.851Z,101392.02
2019-03-22T13:11:42.973Z,101388.59
2019-03-22T13:14:15.127Z,101387.04
2019-03-22T13:16:47.260Z,101383.82
2019-03-22T13:19:19.418Z,101381.70
2019-03-22T13:21:51.512Z,101370.92
2019-03-22T13:24:23.916Z,101372.38
2019-03-22T13:26:56.046Z,101370.65
2019-03-22T13:29:28.201Z,101364.09
2019-03-22T13:32:00.337Z,101360.77
2019-03-22T13:34:32.500Z,101359.18
2019-03-22T13:37:04.678Z,101352.89
2019-03-22T13:39:36.798Z,101350.11
2019-03-22T13:42:08.970Z,101344.06
2019-03-22T13:44:41.079Z,101345.83
2019-03-22T13:47:13.258Z,101345.45
2019-03-22T13:49:45.388Z,101340.48
2019-03-22T13:52:17.643Z,101342.53
2019-03-22T13:54:49.739Z,101344.94
2019-03-22T13:57:24.085Z,101340.73
2019-03-22T13:59:56.201Z,101331.16
2019-03-22T14:02:28.410Z,101328.23
2019-03-22T14:05:00.632Z,101328.59
2019-03-22T14:07:32.646Z,101327.30
2019-03-22T14:10:05.036Z,101313.47
2019-03-22T14:12:38.172Z,101312.33
2019-03-22T14:15:10.578Z,101313.79
2019-03-22T14:17:42.701Z,101305.81
2019-03-22T14:20:14.836Z,101305.16
2019-03-22T14:22:47.002Z,101300.55
2019-03-22T14:25:19.146Z,101296.98
2019-03-22T14:27:51.301Z,101294.06
2019-03-22T14:30:23.545Z,101295.78
2019-03-22T14:32:55.833Z,101295.84
2019-03-22T14:35:28.603Z,101292.33
2019-03-22T14:38:00.720Z,101295.03
2019-03-22T14:40:32.888Z,101284.92
2019-03-22T14:43:05.001Z,101282.70
2019-03-22T14:45:37.171Z,101280.55
2019-03-22T14:48:09.325Z,101280.78
2019-03-22T14:50:41.820Z,101276.67
2019-03-22T14:53:14.003Z,101273.25
2019-03-22T14:55:46.228Z,101261.86
2019-03-22T14:58:18.371Z,101259.70
2019-03-22T15:00:50.479Z,101255.83
2019-03-22T15:03:26.708Z,101250.24
2019-03-22T15:05:58.950Z,101257.20
2019-03-22T15:08:31.030Z,101251.80
2019-03-22T15:11:03.149Z,101252.02
2019-03-22T15:13:38.727Z,101248.41
2019-03-22T15:16:34.083Z,101245.48
2019-03-22T15:19:16.875Z,101244.67
2019-03-22T15:22:09.791Z,101232.57
2019-03-22T15:25:00.702Z,101228.64
2019-03-22T15:27:51.751Z,101226.75
2019-03-22T15:30:55.225Z,101228.52
2019-03-22T15:33:46.367Z,101217.94
2019-03-22T15:36:42.673Z,101220.80
2019-03-22T15:39:44.371Z,101218.70
2019-03-22T15:42:16.093Z,101214.59
2019-03-22T15:44:48.236Z,101215.50
2019-03-22T15:47:20.787Z,101217.97
2019-03-22T15:49:52.911Z,101213.61
2019-03-22T15:52:25.156Z,101213.61
2019-03-22T15:54:57.200Z,101203.02
2019-03-22T15:57:29.327Z,101203.27
2019-03-22T16:00:01.447Z,101206.77
2019-03-22T16:02:33.554Z,101206.67
2019-03-22T16:05:06.665Z,101206.08
2019-03-22T16:07:38.794Z,101210.46
2019-03-22T16:10:11.178Z,101201.63
2019-03-22T16:12:43.290Z,101196.92
2019-03-22T16:15:15.775Z,101201.06
2019-03-22T16:17:47.934Z,101208.55
2019-03-22T16:20:20.273Z,101203.86
2019-03-22T16:22:52.377Z,101198.47
2019-03-22T16:25:24.531Z,101203.61
2019-03-22T16:28:01.327Z,101192.84
2019-03-22T16:30:33.459Z,101198.85
2019-03-22T16:33:05.582Z,101191.48
2019-03-22T16:35:38.630Z,101196.41
2019-03-22T16:38:10.740Z,101185.72
2019-03-22T16:40:42.827Z,101188.43
2019-03-22T16:43:15.031Z,101198.22
2019-03-22T16:45:47.120Z,101189.55
2019-03-22T16:48:19.289Z,101201.38
2019-03-22T16:50:51.430Z,101196.61
2019-03-22T16:53:23.565Z,101191.38
2019-03-22T16:55:55.740Z,101198.34
2019-03-22T16:58:28.153Z,101191.11
2019-03-22T17:01:00.309Z,101183.05
2019-03-22T17:03:32.477Z,101185.84
2019-03-22T17:06:04.623Z,101188.47
2019-03-22T17:08:36.756Z,101183.69
2019-03-22T17:11:08.902Z,101186.80
2019-03-22T17:13:40.931Z,101192.00
2019-03-22T17:16:13.187Z,101190.63
2019-03-22T17:18:45.355Z,101191.69
2019-03-22T17:21:17.551Z,101204.30
2019-03-22T17:23:49.643Z,101194.53
2019-03-22T17:26:21.766Z,101194.08
2019-03-22T17:28:53.786Z,101194.73
2019-03-22T17:31:25.934Z,101194.56
2019-03-22T17:33:58.073Z,101193.13
2019-03-22T17:36:30.286Z,101192.39
2019-03-22T17:39:02.396Z,101203.98
2019-03-22T17:41:34.867Z,101194.35
2019-03-22T17:44:07.321Z,101200.91
2019-03-22T17:46:39.439Z,101200.19
2019-03-22T17:49:11.543Z,101199.25
2019-03-22T17:51:43.664Z,101200.44
2019-03-22T17:54:15.760Z,101201.38
2019-03-22T17:56:47.789Z,101199.92
2019-03-22T17:59:20.192Z,101198.97
2019-03-22T18:01:52.396Z,101197.11
2019-03-22T18:04:24.614Z,101204.66
2019-03-22T18:06:56.723Z,101202.78
2019-03-22T18:09:28.874Z,101212.08
2019-03-22T18:12:01.038Z,101214.11
2019-03-22T18:14:33.175Z,101212.57
2019-03-22T18:17:05.279Z,101212.36
2019-03-22T18:19:37.346Z,101215.91
2019-03-22T18:22:09.495Z,101221.14
2019-03-22T18:24:41.653Z,101218.98
2019-03-22T18:27:13.765Z,101217.64
2019-03-22T18:29:45.913Z,101224.91
2019-03-22T18:32:18.078Z,101219.30
2019-03-22T18:34:50.188Z,101221.78
2019-03-22T18:37:24.782Z,101229.50
2019-03-22T18:39:56.893Z,101228.92
2019-03-22T18:42:29.111Z,101229.76
2019-03-22T18:45:01.126Z,101232.42
2019-03-22T18:47:33.293Z,101231.47
2019-03-22T18:50:06.520Z,101237.31
2019-03-22T18:52:41.113Z,101233.67
2019-03-22T18:55:13.737Z,101234.52
2019-03-22T18:57:45.851Z,101237.47
2019-03-22T19:00:18.277Z,101242.23
2019-03-22T19:02:50.433Z,101239.65
2019-03-22T19:05:25.607Z,101237.75
2019-03-22T19:07:57.837Z,101238.39
2019-03-22T19:10:29.995Z,101242.39
2019-03-22T19:13:02.026Z,101237.33
2019-03-22T19:15:34.074Z,101235.61
2019-03-22T19:18:06.175Z,101235.39
2019-03-22T19:20:38.367Z,101232.23
2019-03-22T19:23:10.547Z,101232.53
2019-03-22T19:25:42.831Z,101235.80
2019-03-22T19:28:14.995Z,101232.06
2019-03-22T19:30:47.225Z,101224.01
2019-03-22T19:33:19.400Z,101225.87
2019-03-22T19:35:51.684Z,101221.97
2019-03-22T19:38:23.904Z,101218.64
2019-03-22T19:40:56.038Z,101216.71
2019-03-22T19:43:28.142Z,101216.97
2019-03-22T19:46:00.314Z,101213.55
2019-03-22T19:48:32.455Z,101222.81
2019-03-22T19:51:04.617Z,101219.95
2019-03-22T19:53:36.757Z,101220.11
2019-03-22T19:56:08.794Z,101223.63
2019-03-22T19:58:41.052Z,101215.19
2019-03-22T20:01:13.045Z,101218.62
2019-03-22T20:03:45.236Z,101214.53
2019-03-22T20:06:17.370Z,101222.35
2019-03-22T20:08:49.473Z,101222.98
2019-03-22T20:11:21.705Z,101227.48
2019-03-22T20:13:53.850Z,101225.56
2019-03-22T20:16:26.020Z,101225.62
2019-03-22T20:18:58.143Z,101228.02
2019-03-22T20:21:30.353Z,101226.69
2019-03-22T20:24:02.518Z,101226.32
2019-03-22T20:26:34.664Z,101224.98
2019-03-22T20:29:06.810Z,101226.56
2019-03-22T20:31:38.929Z,101220.69
2019-03-22T20:34:11.073Z,101217.01
2019-03-22T20:36:43.818Z,101217.54
2019-03-22T20:39:19.493Z,101217.59
2019-03-22T20:41:51.706Z,101213.63
2019-03-22T20:44:33.570Z,101211.53
2019-03-22T20:46:57.610Z,101211.12
2019-03-22T20:49:29.760Z,101210.59
2019-03-22T20:52:01.929Z,101212.02
2019-03-22T20:54:34.072Z,101211.39
2019-03-22T20:57:06.226Z,101206.72
2019-03-22T20:59:38.344Z,101199.85
2019-03-22T21:02:12.786Z,101198.05
2019-03-22T21:04:44.931Z,101195.25
2019-03-22T21:07:17.090Z,101191.74
2019-03-22T21:09:51.374Z,101194.31
2019-03-22T21:12:23.520Z,101192.83
2019-03-22T21:14:55.659Z,101191.66
2019-03-22T21:17:27.762Z,101187.54
2019-03-22T21:19:59.904Z,101191.20
2019-03-22T21:22:32.041Z,101188.14
2019-03-22T21:25:04.417Z,101188.33
2019-03-22T21:27:36.561Z,101192.77
2019-03-22T21:30:08.983Z,101196.61
2019-03-22T21:32:45.513Z,101190.20
2019-03-22T21:35:22.330Z,101191.59
2019-03-22T21:37:48.940Z,101194.53
2019-03-22T21:40:21.085Z,101192.45
2019-03-22T21:42:53.425Z,101195.11
2019-03-22T21:45:25.574Z,101187.55
2019-03-22T21:47:58.634Z,101184.91
2019-03-22T21:50:30.758Z,101185.00
2019-03-22T21:53:02.927Z,101180.84
2019-03-22T21:55:36.038Z,101185.23
2019-03-22T21:58:08.146Z,101184.59
2019-03-22T22:00:40.307Z,101183.59
2019-03-22T22:03:14.487Z,101175.48
2019-03-22T22:05:48.068Z,101175.63
2019-03-22T22:08:20.390Z,101176.86
2019-03-22T22:10:59.564Z,101176.31
2019-03-22T22:13:26.306Z,101173.89
2019-03-22T22:15:58.381Z,101175.98
2019-03-22T22:18:30.485Z,101176.99
2019-03-22T22:21:02.625Z,101191.03
2019-03-22T22:23:34.731Z,101193.02
2019-03-22T22:26:06.872Z,101190.11
2019-03-22T22:28:38.974Z,101193.62
2019-03-22T22:31:11.513Z,101192.02
2019-03-22T22:33:43.585Z,101178.57
2019-03-22T22:36:15.690Z,101188.02
2019-03-22T22:38:47.831Z,101185.45
2019-03-22T22:41:19.979Z,101188.58
2019-03-22T22:43:52.104Z,101187.20
2019-03-22T22:46:24.242Z,101188.47
2019-03-22T22:48:56.302Z,101190.04
2019-03-22T22:51:28.441Z,101188.08
2019-03-22T22:54:00.561Z,101186.88
2019-03-22T22:56:32.731Z,101187.67
2019-03-22T22:59:04.867Z,101190.97
2019-03-22T23:01:36.896Z,101186.33
2019-03-22T23:04:08.998Z,101187.13
2019-03-22T23:06:41.134Z,101186.19
2019-03-22T23:09:13.176Z,101191.40
2019-03-22T23:11:45.235Z,101191.13
2019-03-22T23:14:17.377Z,101190.83
2019-03-22T23:16:49.480Z,101191.92
2019-03-22T23:19:21.636Z,101193.70
2019-03-22T23:21:53.792Z,101191.66
2019-03-22T23:24:25.928Z,101200.12
2019-03-22T23:26:58.053Z,101192.89
2019-03-22T23:29:30.186Z,101198.82
2019-03-22T23:32:02.297Z,101197.27
2019-03-22T23:34:34.411Z,101202.70
2019-03-22T23:37:07.313Z,101202.00
2019-03-22T23:39:39.472Z,101203.85
2019-03-22T23:42:11.646Z,101202.95
2019-03-22T23:44:43.778Z,101203.92
2019-03-22T23:47:15.892Z,101203.43
2019-03-22T23:49:48.045Z,101203.39
2019-03-22T23:52:20.174Z,101204.75
2019-03-22T23:54:52.373Z,101201.84
2019-03-22T23:57:24.508Z,101204.62
2019-03-22T23:59:56.647Z,101203.64
